Time;durP1;ratioP1;P1;durP2;ratioP2;P2;SDS_P1;SDS_P2;PMS_P1;PMS_P2;Temp;Humidity;BMP_temperature;BMP_pressure;BME280_temperature;BME280_humidity;BME280_pressure;Samples;Min_cycle;Max_cycle;Signal;HPM_P1;HPM_P2
2023/08/20 00:00:28;;;;;;;10.00;1.67;;;21.20;77.30;;;;;;5010186;28;20044;-74
2023/08/20 00:03:13;;;;;;;4.05;1.23;;;21.20;77.50;;;;;;5011871;28;20485;-68
2023/08/20 00:05:40;;;;;;;0.70;0.70;;;21.20;77.40;;;;;;5016264;28;20037;-68
2023/08/20 00:08:06;;;;;;;1.23;1.10;;;21.20;77.50;;;;;;5018109;28;20025;-68
2023/08/20 00:10:32;;;;;;;2.42;1.10;;;21.20;77.50;;;;;;5018092;28;20485;-68
2023/08/20 00:12:58;;;;;;;3.67;1.83;;;21.30;77.50;;;;;;5018711;28;20028;-68
2023/08/20 00:15:26;;;;;;;1.73;1.10;;;21.30;77.50;;;;;;5014805;28;20030;-68
2023/08/20 00:17:53;;;;;;;0.80;0.80;;;21.20;77.50;;;;;;5011810;28;20041;-68
2023/08/20 00:20:19;;;;;;;0.90;0.90;;;21.20;77.60;;;;;;5017622;28;20033;-68
2023/08/20 00:22:45;;;;;;;1.08;1.05;;;21.20;77.60;;;;;;5013423;28;20032;-68
2023/08/20 00:25:15;;;;;;;1.90;1.08;;;21.20;77.70;;;;;;5018395;28;20030;-74
2023/08/20 00:27:42;;;;;;;0.77;0.77;;;21.30;77.70;;;;;;5013725;28;20034;-74
2023/08/20 00:30:09;;;;;;;2.53;0.90;;;21.30;77.70;;;;;;5028097;28;20988;-74
2023/08/20 00:32:35;;;;;;;2.35;1.23;;;21.30;77.80;;;;;;5011969;28;20049;-68
2023/08/20 00:35:02;;;;;;;2.70;1.10;;;21.30;78.50;;;;;;5007964;28;20564;-68
2023/08/20 00:37:29;;;;;;;1.23;0.93;;;21.30;77.90;;;;;;5012905;28;20048;-74
2023/08/20 00:39:54;;;;;;;1.13;0.93;;;21.20;77.90;;;;;;5016199;28;20057;-68
2023/08/20 00:42:20;;;;;;;0.95;0.93;;;21.20;77.90;;;;;;5016432;28;20045;-69
2023/08/20 00:44:46;;;;;;;0.82;0.82;;;21.20;77.80;;;;;;5011701;28;20111;-68
2023/08/20 00:47:13;;;;;;;0.77;0.75;;;21.10;77.70;;;;;;5013453;28;20034;-68
2023/08/20 00:49:40;;;;;;;1.50;1.08;;;21.10;77.70;;;;;;5023239;28;20095;-68
2023/08/20 00:52:08;;;;;;;1.70;0.98;;;21.10;77.90;;;;;;5009133;28;20501;-68
2023/08/20 00:54:35;;;;;;;2.67;1.23;;;21.00;77.90;;;;;;5013315;28;20481;-68
2023/08/20 00:57:02;;;;;;;1.77;1.15;;;21.00;78.00;;;;;;5010293;28;20108;-67
2023/08/20 00:59:29;;;;;;;1.10;1.00;;;20.90;77.80;;;;;;5014075;28;20508;-67
2023/08/20 01:01:55;;;;;;;1.30;0.80;;;20.90;77.80;;;;;;5008846;28;20117;-67
2023/08/20 01:04:21;;;;;;;2.92;0.80;;;20.90;77.90;;;;;;5038296;28;20129;-68
2023/08/20 01:07:18;;;;;;;1.73;0.88;;;20.90;77.90;;;;;;5012983;28;20029;-67
2023/08/20 01:10:02;;;;;;;1.08;0.85;;;20.90;77.70;;;;;;5008701;28;20030;-67
2023/08/20 01:12:29;;;;;;;1.50;0.80;;;20.80;77.70;;;;;;5013490;28;20164;-68
2023/08/20 01:14:55;;;;;;;1.60;1.02;;;20.80;77.80;;;;;;5013347;28;20052;-68
2023/08/20 01:17:20;;;;;;;1.88;1.20;;;20.80;78.00;;;;;;5010883;28;20030;-68
2023/08/20 01:19:46;;;;;;;1.95;1.10;;;20.80;78.10;;;;;;5010156;28;20073;-68
2023/08/20 01:22:40;;;;;;;0.82;0.82;;;20.80;78.10;;;;;;5028072;28;20048;-67
2023/08/20 01:25:51;;;;;;;1.20;0.98;;;20.80;78.00;;;;;;5015206;28;20025;-68
2023/08/20 01:28:21;;;;;;;1.23;0.80;;;20.80;77.90;;;;;;5002452;28;20053;-74
2023/08/20 01:30:48;;;;;;;0.95;0.90;;;20.80;78.10;;;;;;5010062;28;20536;-67
2023/08/20 01:33:14;;;;;;;2.35;1.10;;;20.80;78.30;;;;;;5010501;28;20038;-67
2023/08/20 01:35:40;;;;;;;1.15;1.05;;;20.80;78.30;;;;;;5008972;28;20030;-74
2023/08/20 01:38:07;;;;;;;2.20;0.90;;;20.80;78.40;;;;;;5011561;28;20109;-73
2023/08/20 01:40:33;;;;;;;1.30;1.20;;;20.80;78.30;;;;;;5013908;28;20035;-73
2023/08/20 01:42:59;;;;;;;3.95;1.42;;;20.80;78.30;;;;;;5010197;28;20117;-73
2023/08/20 01:45:26;;;;;;;0.85;0.85;;;20.80;78.40;;;;;;5012681;28;20029;-74
2023/08/20 01:47:51;;;;;;;0.80;0.80;;;20.80;78.60;;;;;;5014843;28;20025;-67
2023/08/20 01:50:17;;;;;;;1.08;0.70;;;20.80;78.50;;;;;;5012233;28;20038;-68
2023/08/20 01:52:43;;;;;;;0.75;0.75;;;20.80;78.50;;;;;;5008995;28;20033;-68
2023/08/20 01:55:09;;;;;;;1.10;1.00;;;20.80;78.40;;;;;;5011618;28;20370;-67
2023/08/20 01:57:35;;;;;;;2.33;0.82;;;20.80;78.50;;;;;;5012057;28;20057;-74
2023/08/20 02:00:00;;;;;;;0.85;0.82;;;20.80;78.50;;;;;;5008976;28;20069;-73
2023/08/20 02:02:26;;;;;;;0.70;0.70;;;20.80;78.70;;;;;;5009014;28;20833;-74
2023/08/20 02:04:51;;;;;;;3.83;1.33;;;20.70;78.60;;;;;;5013140;28;20496;-73
2023/08/20 02:07:17;;;;;;;2.25;0.70;;;20.70;78.60;;;;;;5016637;28;20080;-74
2023/08/20 02:09:43;;;;;;;1.08;0.90;;;20.70;78.60;;;;;;5029194;28;20030;-74
2023/08/20 02:12:08;;;;;;;1.35;1.13;;;20.70;78.50;;;;;;5013466;28;20100;-73
2023/08/20 02:14:35;;;;;;;1.23;0.90;;;20.60;78.50;;;;;;5017427;28;20511;-74
2023/08/20 02:17:04;;;;;;;0.77;0.77;;;20.60;78.50;;;;;;5012501;28;20109;-73
2023/08/20 02:19:30;;;;;;;0.70;0.70;;;20.50;78.60;;;;;;5007000;28;20486;-73
2023/08/20 02:21:56;;;;;;;0.93;0.93;;;20.50;78.70;;;;;;5010367;28;20034;-74
2023/08/20 02:24:22;;;;;;;1.10;0.95;;;20.50;78.70;;;;;;5010356;28;20129;-74
2023/08/20 02:26:47;;;;;;;1.38;0.90;;;20.40;78.70;;;;;;5016984;28;20108;-74
2023/08/20 02:29:13;;;;;;;2.63;1.10;;;20.40;78.70;;;;;;5012245;28;20315;-73
2023/08/20 02:31:39;;;;;;;1.88;1.45;;;20.30;78.80;;;;;;5010558;28;20338;-74
2023/08/20 02:34:04;;;;;;;2.40;1.27;;;20.30;78.80;;;;;;5033952;28;20042;-74
2023/08/20 02:36:30;;;;;;;0.80;0.80;;;20.30;78.70;;;;;;5013317;28;20120;-74
2023/08/20 02:38:56;;;;;;;1.95;1.38;;;20.30;78.70;;;;;;5012420;28;20049;-73
2023/08/20 02:41:21;;;;;;;1.48;1.25;;;20.30;78.70;;;;;;5008989;28;20041;-73
2023/08/20 02:43:47;;;;;;;0.98;0.98;;;20.30;78.90;;;;;;5022289;28;20145;-74
2023/08/20 02:46:13;;;;;;;1.00;0.90;;;20.30;78.90;;;;;;5026615;28;20413;-73
2023/08/20 02:48:39;;;;;;;1.00;0.90;;;20.20;78.80;;;;;;5009629;28;20030;-74
2023/08/20 02:51:04;;;;;;;2.15;1.10;;;20.20;78.90;;;;;;5008230;28;20041;-73
2023/08/20 02:53:30;;;;;;;3.58;1.60;;;20.20;78.90;;;;;;5011718;28;20053;-74
2023/08/20 02:55:56;;;;;;;2.33;1.40;;;20.20;79.00;;;;;;5009613;28;20397;-74
2023/08/20 02:58:22;;;;;;;1.77;1.17;;;20.20;79.00;;;;;;5008965;28;20029;-67
2023/08/20 03:00:48;;;;;;;1.70;1.40;;;20.20;79.00;;;;;;5007253;28;20038;-67
2023/08/20 03:03:14;;;;;;;1.63;1.38;;;20.10;79.00;;;;;;5008753;28;20037;-67
2023/08/20 03:05:40;;;;;;;1.27;1.17;;;20.10;79.00;;;;;;5011217;28;20034;-67
2023/08/20 03:08:06;;;;;;;2.67;1.40;;;20.10;79.00;;;;;;5013603;28;20037;-73
2023/08/20 03:10:32;;;;;;;1.45;1.35;;;20.00;79.00;;;;;;4991932;28;20378;-73
2023/08/20 03:13:02;;;;;;;1.48;1.10;;;20.00;79.00;;;;;;5009693;28;20111;-73
2023/08/20 03:15:28;;;;;;;3.08;1.35;;;20.00;78.90;;;;;;5010163;28;20053;-67
2023/08/20 03:17:54;;;;;;;3.33;1.63;;;20.00;78.90;;;;;;5015323;28;20026;-68
2023/08/20 03:20:19;;;;;;;5.40;1.33;;;20.00;78.90;;;;;;5008338;28;20045;-67
2023/08/20 03:22:45;;;;;;;1.48;1.30;;;20.00;78.90;;;;;;5005564;28;20101;-73
2023/08/20 03:25:11;;;;;;;1.38;1.17;;;20.00;78.90;;;;;;5011603;28;20042;-73
2023/08/20 03:27:36;;;;;;;1.40;1.05;;;19.90;78.80;;;;;;5007144;28;20022;-73
2023/08/20 03:30:03;;;;;;;2.17;1.63;;;19.90;78.80;;;;;;5011051;28;20034;-74
2023/08/20 03:32:29;;;;;;;1.55;1.40;;;19.90;78.90;;;;;;5005432;28;20072;-73
2023/08/20 03:34:55;;;;;;;1.40;1.30;;;19.80;78.90;;;;;;5013038;28;20029;-74
2023/08/20 03:37:22;;;;;;;1.17;0.98;;;19.80;78.90;;;;;;5005122;28;20524;-73
2023/08/20 03:39:48;;;;;;;4.93;1.58;;;19.80;78.90;;;;;;5003973;28;20396;-73
2023/08/20 03:42:13;;;;;;;3.92;1.73;;;19.80;78.90;;;;;;5004981;28;20026;-72
2023/08/20 03:44:39;;;;;;;2.35;1.50;;;19.70;78.90;;;;;;4998621;28;20053;-67
2023/08/20 03:47:05;;;;;;;1.77;1.65;;;19.70;78.90;;;;;;5006053;28;20026;-67
2023/08/20 03:49:36;;;;;;;1.27;1.05;;;19.70;78.80;;;;;;5010780;28;20570;-67
2023/08/20 03:52:10;;;;;;;1.10;1.00;;;19.70;78.90;;;;;;4998706;28;20090;-67
2023/08/20 03:54:37;;;;;;;2.15;1.95;;;19.70;78.80;;;;;;4990976;28;20065;-67
2023/08/20 03:57:02;;;;;;;1.33;1.23;;;19.60;78.80;;;;;;5002707;28;20057;-67
2023/08/20 03:59:29;;;;;;;1.33;1.23;;;19.70;78.80;;;;;;5011811;28;20046;-67
2023/08/20 04:01:55;;;;;;;3.20;1.75;;;19.60;78.70;;;;;;5012425;28;20026;-68
2023/08/20 04:04:21;;;;;;;3.15;1.40;;;19.60;78.70;;;;;;5012650;28;20627;-67
2023/08/20 04:06:47;;;;;;;2.42;1.45;;;19.60;78.80;;;;;;5013548;28;20117;-67
2023/08/20 04:09:12;;;;;;;1.67;1.48;;;19.60;79.00;;;;;;5018459;28;20044;-67
2023/08/20 04:11:38;;;;;;;4.55;1.38;;;19.50;79.00;;;;;;5014987;28;20117;-68
2023/08/20 04:14:04;;;;;;;4.13;1.10;;;19.50;79.00;;;;;;5015512;28;20061;-67
2023/08/20 04:16:30;;;;;;;1.63;1.30;;;19.50;79.10;;;;;;5016235;28;20437;-68
2023/08/20 04:18:56;;;;;;;1.75;1.30;;;19.50;79.10;;;;;;5014618;28;20479;-67
2023/08/20 04:21:21;;;;;;;2.28;1.15;;;19.50;79.10;;;;;;5006743;28;20037;-67
2023/08/20 04:23:47;;;;;;;5.15;1.25;;;19.50;79.00;;;;;;5010440;28;20030;-67
2023/08/20 04:26:13;;;;;;;1.88;1.33;;;19.40;78.90;;;;;;5011994;28;20104;-67
2023/08/20 04:28:39;;;;;;;3.63;1.45;;;19.40;78.90;;;;;;5011200;28;20057;-67
2023/08/20 04:31:04;;;;;;;2.95;1.95;;;19.40;78.90;;;;;;5013824;28;20072;-67
2023/08/20 04:33:30;;;;;;;7.53;1.95;;;19.40;78.90;;;;;;5012332;28;20033;-67
2023/08/20 04:35:56;;;;;;;2.28;1.25;;;19.30;78.90;;;;;;5008718;28;20038;-73
2023/08/20 04:38:21;;;;;;;3.47;1.70;;;19.30;78.80;;;;;;5009897;28;20121;-74
2023/08/20 04:40:48;;;;;;;1.65;1.55;;;19.30;78.90;;;;;;5013485;28;20030;-73
2023/08/20 04:43:14;;;;;;;2.08;1.38;;;19.30;79.00;;;;;;5012075;28;20081;-73
2023/08/20 04:45:40;;;;;;;4.40;1.70;;;19.30;79.00;;;;;;5014036;28;20382;-74
2023/08/20 04:48:06;;;;;;;2.65;1.50;;;19.30;79.00;;;;;;5011405;28;20054;-73
2023/08/20 04:50:31;;;;;;;1.55;1.42;;;19.30;79.00;;;;;;4994858;28;20061;-74
2023/08/20 04:52:59;;;;;;;1.95;1.45;;;19.30;79.10;;;;;;5010515;28;20026;-67
2023/08/20 04:55:25;;;;;;;2.35;1.48;;;19.30;79.10;;;;;;5010247;28;20034;-68
2023/08/20 04:57:51;;;;;;;4.80;1.67;;;19.30;79.10;;;;;;5012012;28;20425;-73
2023/08/20 05:00:17;;;;;;;3.95;1.70;;;19.30;79.20;;;;;;5009857;28;20018;-73
2023/08/20 05:02:42;;;;;;;1.60;1.20;;;19.30;79.30;;;;;;5011066;28;20129;-73
2023/08/20 05:05:08;;;;;;;1.45;1.33;;;19.30;79.30;;;;;;5008402;28;20105;-73
2023/08/20 05:07:34;;;;;;;1.73;1.52;;;19.30;79.30;;;;;;5011373;28;20120;-73
2023/08/20 05:10:00;;;;;;;2.63;1.70;;;19.30;79.20;;;;;;5020976;28;20038;-67
2023/08/20 05:12:26;;;;;;;1.77;1.42;;;19.40;79.30;;;;;;5017198;28;20038;-67
2023/08/20 05:14:51;;;;;;;2.22;1.70;;;19.40;79.40;;;;;;5013422;28;20068;-74
2023/08/20 05:17:17;;;;;;;2.53;1.70;;;19.50;79.50;;;;;;5020654;28;20033;-74
2023/08/20 05:19:43;;;;;;;1.80;1.48;;;19.50;79.60;;;;;;5010874;28;20447;-74
2023/08/20 05:22:10;;;;;;;1.70;1.60;;;19.50;79.70;;;;;;5015871;28;20441;-74
2023/08/20 05:24:36;;;;;;;3.38;1.85;;;19.50;79.90;;;;;;5012029;28;20026;-73
2023/08/20 05:27:09;;;;;;;1.77;1.33;;;19.50;80.00;;;;;;5011046;28;20029;-74
2023/08/20 05:29:37;;;;;;;1.70;1.60;;;19.60;80.00;;;;;;5012155;28;20459;-73
2023/08/20 05:32:03;;;;;;;2.00;1.40;;;19.60;80.00;;;;;;5008269;28;20030;-73
2023/08/20 05:34:29;;;;;;;2.15;1.60;;;19.60;80.00;;;;;;5009042;28;20419;-73
2023/08/20 05:36:54;;;;;;;1.58;1.23;;;19.70;80.00;;;;;;5013796;28;20049;-67
2023/08/20 05:39:20;;;;;;;1.80;1.60;;;19.80;80.00;;;;;;5013619;28;20029;-67
2023/08/20 05:41:46;;;;;;;1.95;1.40;;;19.80;80.00;;;;;;5013430;28;20029;-67
2023/08/20 05:44:11;;;;;;;1.92;1.58;;;19.90;80.00;;;;;;5013406;28;20068;-74
2023/08/20 05:46:37;;;;;;;2.88;1.63;;;19.90;80.10;;;;;;5012258;28;20172;-67
2023/08/20 05:49:03;;;;;;;2.40;1.50;;;20.00;80.10;;;;;;5017127;28;20397;-67
2023/08/20 05:51:28;;;;;;;2.08;1.30;;;20.00;80.10;;;;;;5015440;28;20033;-67
2023/08/20 05:53:54;;;;;;;2.05;1.25;;;20.00;80.10;;;;;;5011306;28;20033;-67
2023/08/20 05:56:20;;;;;;;1.73;1.17;;;20.10;80.10;;;;;;5020152;28;20029;-67
2023/08/20 05:58:45;;;;;;;1.20;1.02;;;20.20;80.10;;;;;;5014434;28;20389;-67
2023/08/20 06:01:11;;;;;;;3.05;1.30;;;20.30;80.10;;;;;;5022470;28;20030;-67
2023/08/20 06:03:37;;;;;;;2.75;1.48;;;20.30;80.10;;;;;;5007041;28;20430;-67
2023/08/20 06:06:03;;;;;;;1.05;1.00;;;20.40;80.00;;;;;;5009785;28;20472;-73
2023/08/20 06:08:28;;;;;;;0.80;0.73;;;20.50;79.90;;;;;;5019651;28;20026;-73
2023/08/20 06:10:54;;;;;;;1.35;1.10;;;20.60;79.80;;;;;;5012833;28;20038;-67
2023/08/20 06:13:20;;;;;;;1.23;1.10;;;20.70;79.70;;;;;;5014677;28;20037;-73
2023/08/20 06:15:45;;;;;;;3.95;1.00;;;20.80;79.70;;;;;;5013643;28;20037;-67
2023/08/20 06:18:11;;;;;;;1.90;1.05;;;20.80;79.50;;;;;;5012239;28;20042;-67
2023/08/20 06:20:37;;;;;;;5.05;1.60;;;20.90;79.40;;;;;;5014065;28;20026;-67
2023/08/20 06:23:03;;;;;;;6.40;1.52;;;20.90;79.10;;;;;;5013790;28;20032;-67
2023/08/20 06:25:28;;;;;;;4.05;0.80;;;21.00;79.00;;;;;;5014529;28;20021;-67
2023/08/20 06:27:54;;;;;;;4.10;1.42;;;21.10;78.80;;;;;;5010075;28;20048;-67
2023/08/20 06:30:20;;;;;;;2.33;0.70;;;21.20;79.20;;;;;;4997047;28;20345;-67
2023/08/20 06:32:45;;;;;;;3.80;1.27;;;21.20;78.60;;;;;;5014095;28;20037;-67
2023/08/20 06:35:11;;;;;;;6.07;1.05;;;21.30;78.40;;;;;;5009476;28;20417;-67
2023/08/20 06:37:40;;;;;;;3.72;0.85;;;21.40;78.00;;;;;;5013654;28;20029;-67
2023/08/20 06:40:06;;;;;;;6.35;1.30;;;21.50;77.90;;;;;;5015384;28;20125;-67
2023/08/20 06:42:32;;;;;;;1.52;0.95;;;21.50;77.20;;;;;;5009954;28;20380;-67
2023/08/20 06:44:58;;;;;;;4.65;1.25;;;21.60;77.00;;;;;;5012552;28;20046;-67
2023/08/20 06:47:23;;;;;;;1.83;1.17;;;21.60;76.60;;;;;;5012390;28;20045;-67
2023/08/20 06:49:50;;;;;;;3.28;1.20;;;21.60;75.60;;;;;;5012245;28;20029;-67
2023/08/20 06:52:16;;;;;;;5.88;1.73;;;21.60;75.30;;;;;;5009360;28;20018;-67
2023/08/20 06:54:42;;;;;;;2.15;1.50;;;21.60;75.30;;;;;;5004165;28;20056;-67
2023/08/20 06:57:07;;;;;;;1.33;1.05;;;21.70;75.50;;;;;;5004131;28;20457;-68
2023/08/20 06:59:33;;;;;;;6.32;1.55;;;21.70;75.40;;;;;;5005618;28;20396;-68
2023/08/20 07:01:59;;;;;;;3.97;1.63;;;21.80;75.40;;;;;;5008026;28;20022;-67
2023/08/20 07:04:24;;;;;;;3.63;1.90;;;21.80;74.90;;;;;;5006834;28;20460;-73
2023/08/20 07:06:51;;;;;;;1.50;1.30;;;21.90;74.80;;;;;;5010634;28;20026;-76
2023/08/20 07:09:17;;;;;;;4.80;1.20;;;21.90;74.80;;;;;;5015767;28;20132;-69
2023/08/20 07:11:43;;;;;;;2.63;0.90;;;21.90;75.00;;;;;;5011940;28;20113;-68
2023/08/20 07:14:09;;;;;;;2.70;1.70;;;22.00;75.00;;;;;;5013768;28;20124;-68
2023/08/20 07:16:34;;;;;;;2.60;1.20;;;22.10;74.80;;;;;;5012603;28;20441;-74
2023/08/20 07:19:00;;;;;;;2.05;1.00;;;22.10;74.00;;;;;;5013174;28;20058;-68
2023/08/20 07:21:26;;;;;;;2.42;0.73;;;22.20;73.90;;;;;;4998698;28;20061;-76
2023/08/20 07:23:51;;;;;;;3.90;0.85;;;22.20;73.90;;;;;;5007719;28;20037;-75
2023/08/20 07:26:17;;;;;;;3.10;1.20;;;22.30;73.50;;;;;;5005312;28;20029;-76
2023/08/20 07:28:58;;;;;;;1.35;1.08;;;22.40;73.30;;;;;;4990076;28;20030;-76
2023/08/20 07:31:28;;;;;;;1.65;0.73;;;22.40;73.20;;;;;;5011847;28;20038;-76
2023/08/20 07:33:56;;;;;;;0.80;0.68;;;22.60;73.30;;;;;;5012142;28;20058;-69
2023/08/20 07:36:22;;;;;;;0.60;0.60;;;22.70;73.20;;;;;;5008106;28;20029;-76
2023/08/20 07:38:49;;;;;;;1.80;1.02;;;22.90;73.00;;;;;;5006014;28;20038;-76
2023/08/20 07:41:14;;;;;;;1.35;0.68;;;22.90;72.00;;;;;;4987673;28;20041;-69
2023/08/20 07:43:41;;;;;;;1.13;0.90;;;22.90;72.10;;;;;;5006133;28;20485;-68
2023/08/20 07:46:07;;;;;;;1.88;0.90;;;23.00;71.70;;;;;;5010321;28;20123;-75
2023/08/20 07:48:34;;;;;;;1.20;0.95;;;23.00;71.60;;;;;;5008411;28;20053;-74
2023/08/20 07:51:00;;;;;;;0.75;0.60;;;23.00;71.50;;;;;;5011068;28;20461;-74
2023/08/20 07:53:26;;;;;;;1.55;0.65;;;23.10;71.40;;;;;;5009902;28;20394;-75
2023/08/20 07:55:52;;;;;;;6.10;1.00;;;23.20;71.30;;;;;;5010802;28;20043;-70
2023/08/20 07:58:17;;;;;;;3.17;1.08;;;23.20;70.70;;;;;;5026392;28;20021;-69
2023/08/20 08:00:43;;;;;;;6.05;0.90;;;23.20;70.80;;;;;;5012509;28;20873;-68
2023/08/20 08:03:09;;;;;;;0.50;0.50;;;23.20;70.50;;;;;;5029129;28;20032;-74
2023/08/20 08:05:36;;;;;;;3.25;1.00;;;23.20;70.50;;;;;;5013575;28;20121;-74
2023/08/20 08:08:02;;;;;;;0.77;0.60;;;23.30;70.00;;;;;;5023739;28;20053;-74
2023/08/20 08:10:28;;;;;;;1.20;0.95;;;23.40;69.60;;;;;;5011102;28;20052;-77
2023/08/20 08:12:54;;;;;;;1.83;0.63;;;23.50;69.60;;;;;;5015091;28;20021;-79
2023/08/20 08:15:19;;;;;;;1.38;0.63;;;23.50;69.00;;;;;;5021107;28;20037;-74
2023/08/20 08:17:45;;;;;;;0.38;0.38;;;23.50;67.80;;;;;;5031553;28;20022;-70
2023/08/20 08:20:11;;;;;;;0.30;0.30;;;23.60;67.90;;;;;;5004198;28;20237;-69
2023/08/20 08:22:37;;;;;;;1.40;1.05;;;23.60;67.30;;;;;;5008276;28;20141;-70
2023/08/20 08:25:02;;;;;;;1.58;0.75;;;23.70;67.30;;;;;;5012113;28;20041;-66
2023/08/20 08:27:28;;;;;;;0.63;0.50;;;23.80;67.70;;;;;;5003605;28;20098;-69
2023/08/20 08:29:54;;;;;;;1.38;0.80;;;23.90;67.50;;;;;;4990032;28;20120;-70
2023/08/20 08:32:19;;;;;;;0.57;0.57;;;24.00;67.50;;;;;;5007267;28;20036;-69
2023/08/20 08:34:45;;;;;;;1.58;0.50;;;24.10;67.00;;;;;;5011207;28;20022;-69
2023/08/20 08:37:11;;;;;;;1.17;0.60;;;24.10;66.40;;;;;;5010059;28;20122;-77
2023/08/20 08:39:36;;;;;;;1.90;0.68;;;24.10;66.60;;;;;;5009970;28;20129;-76
2023/08/20 08:42:04;;;;;;;1.90;0.88;;;24.20;66.20;;;;;;5002050;28;20424;-76
2023/08/20 08:44:34;;;;;;;1.05;0.50;;;24.20;66.50;;;;;;5009596;28;20119;-75
2023/08/20 08:47:01;;;;;;;1.63;0.70;;;24.20;64.60;;;;;;5005125;28;20543;-80
2023/08/20 08:49:26;;;;;;;3.00;0.60;;;24.20;64.50;;;;;;5000478;28;20300;-76
2023/08/20 08:51:56;;;;;;;1.40;0.52;;;24.30;64.50;;;;;;5006422;28;20382;-68
2023/08/20 08:54:22;;;;;;;0.60;0.55;;;24.40;64.80;;;;;;5020800;28;20045;-68
2023/08/20 08:56:48;;;;;;;3.45;1.15;;;24.50;65.00;;;;;;5010940;28;20039;-68
2023/08/20 08:59:14;;;;;;;3.92;1.30;;;24.70;64.30;;;;;;5002639;28;20079;-69
2023/08/20 09:01:41;;;;;;;3.72;0.90;;;24.70;62.70;;;;;;5011294;28;20048;-68
2023/08/20 09:04:06;;;;;;;2.78;0.40;;;24.70;63.30;;;;;;4998563;28;20105;-69
2023/08/20 09:06:46;;;;;;;0.65;0.30;;;24.90;63.70;;;;;;5003603;28;20029;-76
2023/08/20 09:09:12;;;;;;;2.60;0.40;;;25.00;62.90;;;;;;5009537;28;20392;-76
2023/08/20 09:11:38;;;;;;;1.02;0.50;;;25.00;63.20;;;;;;5010088;28;20033;-76
2023/08/20 09:14:04;;;;;;;2.63;0.85;;;25.10;63.40;;;;;;5008431;28;20026;-76
2023/08/20 09:16:31;;;;;;;0.20;0.20;;;25.30;63.20;;;;;;5012072;28;20041;-76
2023/08/20 09:18:59;;;;;;;0.47;0.47;;;25.30;62.50;;;;;;5014492;28;20025;-76
2023/08/20 09:21:29;;;;;;;0.50;0.43;;;25.40;61.30;;;;;;5012149;28;20026;-76
2023/08/20 09:23:56;;;;;;;0.95;0.40;;;25.50;61.50;;;;;;5009526;28;20084;-76
2023/08/20 09:26:22;;;;;;;1.20;0.50;;;25.60;61.40;;;;;;5010153;28;20034;-68
2023/08/20 09:28:48;;;;;;;0.73;0.50;;;25.70;61.30;;;;;;5007635;28;20053;-75
2023/08/20 09:31:14;;;;;;;0.60;0.60;;;25.80;61.10;;;;;;5006875;28;20041;-77
2023/08/20 09:33:50;;;;;;;0.47;0.47;;;25.90;60.90;;;;;;5010524;28;20034;-76
2023/08/20 09:36:17;;;;;;;0.40;0.40;;;26.00;59.60;;;;;;5013543;28;20052;-75
2023/08/20 09:38:42;;;;;;;0.85;0.50;;;25.90;57.30;;;;;;5010143;28;20101;-78
2023/08/20 09:41:09;;;;;;;0.50;0.40;;;25.80;57.90;;;;;;5012856;28;20110;-76
2023/08/20 09:43:39;;;;;;;0.40;0.40;;;25.90;58.60;;;;;;5009148;28;20062;-76
2023/08/20 09:46:05;;;;;;;0.25;0.25;;;26.00;58.80;;;;;;5009551;28;20030;-77
2023/08/20 09:48:37;;;;;;;0.40;0.40;;;26.00;57.70;;;;;;5010337;28;20037;-77
2023/08/20 09:51:11;;;;;;;2.53;0.68;;;26.20;58.90;;;;;;5011236;28;20026;-77
2023/08/20 09:53:55;;;;;;;0.52;0.50;;;26.30;57.50;;;;;;5007359;28;20069;-76
2023/08/20 09:56:28;;;;;;;0.55;0.52;;;26.40;56.80;;;;;;5018819;28;20048;-77
2023/08/20 09:58:55;;;;;;;0.63;0.60;;;26.40;56.50;;;;;;5010667;28;20084;-77
2023/08/20 10:01:21;;;;;;;0.32;0.32;;;26.50;56.70;;;;;;5012638;28;20029;-69
2023/08/20 10:03:47;;;;;;;0.40;0.40;;;26.70;56.80;;;;;;5017974;28;20029;-69
2023/08/20 10:06:13;;;;;;;0.35;0.35;;;26.70;57.60;;;;;;5008731;28;20034;-69
2023/08/20 10:08:39;;;;;;;1.08;0.60;;;26.80;56.30;;;;;;5017987;28;20041;-69
2023/08/20 10:11:04;;;;;;;0.95;0.40;;;26.80;56.30;;;;;;5013230;28;20109;-69
2023/08/20 10:13:30;;;;;;;0.57;0.50;;;27.00;55.70;;;;;;5012283;28;20057;-67
2023/08/20 10:15:56;;;;;;;4.00;0.43;;;27.00;55.80;;;;;;5006231;28;20069;-75
2023/08/20 10:18:22;;;;;;;0.50;0.50;;;27.00;55.50;;;;;;5005924;28;20033;-75
2023/08/20 10:20:51;;;;;;;0.47;0.45;;;27.00;54.90;;;;;;5012542;28;20025;-77
2023/08/20 10:23:24;;;;;;;1.85;0.65;;;27.10;54.10;;;;;;5013589;28;20088;-77
2023/08/20 10:25:52;;;;;;;0.30;0.30;;;27.10;54.40;;;;;;5005640;28;20040;-77
2023/08/20 10:28:25;;;;;;;0.50;0.50;;;27.20;54.20;;;;;;5007195;28;20120;-77
2023/08/20 10:31:11;;;;;;;0.40;0.40;;;27.30;54.00;;;;;;5018536;28;20038;-75
2023/08/20 10:33:54;;;;;;;0.75;0.30;;;27.40;53.80;;;;;;5004469;28;20033;-75
2023/08/20 10:36:30;;;;;;;0.35;0.35;;;27.50;52.90;;;;;;5002843;28;20050;-75
2023/08/20 10:38:57;;;;;;;0.77;0.35;;;27.60;53.30;;;;;;5008128;28;20022;-76
2023/08/20 10:41:29;;;;;;;2.20;0.52;;;27.70;52.50;;;;;;5012640;28;20082;-78
2023/08/20 10:43:58;;;;;;;3.95;0.85;;;27.80;52.50;;;;;;5007009;28;20038;-77
2023/08/20 10:46:25;;;;;;;2.45;0.60;;;27.90;52.20;;;;;;5006886;28;20069;-75
2023/08/20 10:48:53;;;;;;;1.65;0.30;;;28.00;51.50;;;;;;5007693;28;20080;-76
2023/08/20 10:51:23;;;;;;;0.30;0.30;;;28.10;51.40;;;;;;5001481;28;20034;-69
2023/08/20 10:54:02;;;;;;;1.42;0.40;;;28.10;51.70;;;;;;5007334;28;20034;-68
2023/08/20 10:56:41;;;;;;;0.50;0.50;;;28.30;51.60;;;;;;5009314;28;20026;-69
2023/08/20 10:59:16;;;;;;;0.47;0.47;;;28.40;51.20;;;;;;5003399;28;20385;-69
2023/08/20 11:01:46;;;;;;;3.92;0.65;;;28.60;51.70;;;;;;5008253;28;20026;-69
2023/08/20 11:04:15;;;;;;;0.50;0.50;;;28.70;49.80;;;;;;5003738;28;20053;-77
2023/08/20 11:06:41;;;;;;;0.73;0.55;;;28.70;49.70;;;;;;5007158;28;20496;-76
2023/08/20 11:09:07;;;;;;;0.45;0.43;;;28.70;49.20;;;;;;5013918;28;20055;-77
2023/08/20 11:11:32;;;;;;;0.40;0.40;;;28.70;49.30;;;;;;5011269;28;20026;-77
2023/08/20 11:14:06;;;;;;;0.77;0.52;;;28.80;49.40;;;;;;5007256;28;20025;-77
2023/08/20 11:16:32;;;;;;;1.55;0.80;;;28.70;49.60;;;;;;5010219;28;20073;-76
2023/08/20 11:18:58;;;;;;;2.28;0.50;;;28.90;50.00;;;;;;5005747;28;20444;-76
2023/08/20 11:21:24;;;;;;;0.98;0.60;;;29.00;47.90;;;;;;5009702;28;20026;-76
2023/08/20 11:23:49;;;;;;;0.55;0.55;;;29.10;47.60;;;;;;5009707;28;20043;-78
2023/08/20 11:26:17;;;;;;;1.13;0.98;;;29.10;48.00;;;;;;5010612;28;20759;-79
2023/08/20 11:28:48;;;;;;;1.50;0.40;;;29.10;48.30;;;;;;5007966;28;20057;-70
2023/08/20 11:31:14;;;;;;;0.40;0.32;;;29.10;48.50;;;;;;5009038;28;20046;-70
2023/08/20 11:33:40;;;;;;;1.85;0.50;;;29.20;48.20;;;;;;5010348;28;20040;-70
2023/08/20 11:36:06;;;;;;;0.40;0.40;;;29.40;47.10;;;;;;5011788;28;20121;-70
2023/08/20 11:38:32;;;;;;;0.63;0.40;;;29.50;47.00;;;;;;5005405;28;20133;-70
2023/08/20 11:40:59;;;;;;;0.30;0.30;;;29.80;47.10;;;;;;5006833;28;20477;-70
2023/08/20 11:43:30;;;;;;;0.47;0.45;;;30.00;47.20;;;;;;5014721;28;20436;-75
2023/08/20 11:45:55;;;;;;;2.05;0.60;;;30.00;45.00;;;;;;5015178;28;20037;-68
2023/08/20 11:48:22;;;;;;;0.30;0.30;;;30.00;45.60;;;;;;5012937;28;20041;-78
2023/08/20 11:50:49;;;;;;;0.63;0.40;;;30.00;45.20;;;;;;5006308;28;20097;-76
2023/08/20 11:53:14;;;;;;;0.90;0.40;;;30.00;45.80;;;;;;5010077;28;20056;-76
2023/08/20 11:55:41;;;;;;;0.85;0.32;;;30.10;45.30;;;;;;5000091;28;20484;-69
2023/08/20 11:58:12;;;;;;;0.40;0.40;;;30.10;45.70;;;;;;5023325;28;20053;-68
2023/08/20 12:00:38;;;;;;;0.35;0.35;;;30.20;45.40;;;;;;5013683;28;20026;-76
2023/08/20 12:03:05;;;;;;;4.13;0.40;;;30.40;45.80;;;;;;5013151;28;20526;-69
2023/08/20 12:05:31;;;;;;;0.30;0.30;;;30.70;44.70;;;;;;5026720;28;20140;-69
2023/08/20 12:07:58;;;;;;;0.35;0.35;;;30.80;45.20;;;;;;5015113;28;20107;-75
2023/08/20 12:10:25;;;;;;;1.27;0.47;;;31.00;45.70;;;;;;5012414;28;20038;-76
2023/08/20 12:12:52;;;;;;;0.68;0.30;;;31.10;44.10;;;;;;5011100;28;20053;-76
2023/08/20 12:15:19;;;;;;;0.50;0.50;;;31.10;44.10;;;;;;5020515;28;20084;-68
2023/08/20 12:18:01;;;;;;;1.15;0.47;;;31.20;44.20;;;;;;5010430;28;20032;-68
2023/08/20 12:20:29;;;;;;;0.43;0.40;;;31.30;44.30;;;;;;4997218;28;20428;-69
2023/08/20 12:22:55;;;;;;;2.45;1.05;;;31.40;44.60;;;;;;5013199;28;20457;-75
2023/08/20 12:25:20;;;;;;;1.27;0.50;;;31.50;44.70;;;;;;4999058;28;20444;-76
2023/08/20 12:27:46;;;;;;;1.95;1.25;;;31.50;44.00;;;;;;5020501;28;20038;-68
2023/08/20 12:30:12;;;;;;;1.00;0.60;;;31.50;43.20;;;;;;5006410;28;20516;-76
2023/08/20 12:32:38;;;;;;;0.50;0.50;;;31.40;43.60;;;;;;5011850;28;20120;-76
2023/08/20 12:35:04;;;;;;;0.60;0.60;;;31.40;43.50;;;;;;5013857;28;20108;-68
2023/08/20 12:37:33;;;;;;;0.30;0.30;;;31.50;43.60;;;;;;5013329;28;20116;-70
2023/08/20 12:39:59;;;;;;;2.08;0.40;;;31.60;43.70;;;;;;5009745;28;20820;-76
2023/08/20 12:42:24;;;;;;;0.73;0.30;;;31.70;43.30;;;;;;5008283;28;20029;-69
2023/08/20 12:44:50;;;;;;;0.40;0.40;;;31.80;43.40;;;;;;5011082;28;20058;-68
2023/08/20 12:47:15;;;;;;;1.23;0.40;;;31.90;44.00;;;;;;5020926;28;20062;-69